sensor_id;sensor_type;location;lat;lon;timestamp;P1;durP1;ratioP1;P2;durP2;ratioP2
38581;SDS011;24349;53.720;10.014;2023-03-13T00:01:15;32.25;;;11.23;;
38581;SDS011;24349;53.720;10.014;2023-03-13T00:03:45;27.23;;;9.48;;
38581;SDS011;24349;53.720;10.014;2023-03-13T00:06:11;27.55;;;9.35;;
38581;SDS011;24349;53.720;10.014;2023-03-13T00:08:37;30.70;;;9.25;;
38581;SDS011;24349;53.720;10.014;2023-03-13T00:11:05;27.40;;;8.85;;
38581;SDS011;24349;53.720;10.014;2023-03-13T00:13:32;28.10;;;8.35;;
38581;SDS011;24349;53.720;10.014;2023-03-13T00:15:59;29.17;;;9.00;;
38581;SDS011;24349;53.720;10.014;2023-03-13T00:18:25;31.98;;;9.32;;
38581;SDS011;24349;53.720;10.014;2023-03-13T00:21:01;30.40;;;8.70;;
38581;SDS011;24349;53.720;10.014;2023-03-13T00:23:31;28.55;;;9.75;;
38581;SDS011;24349;53.720;10.014;2023-03-13T00:25:58;27.33;;;8.25;;
38581;SDS011;24349;53.720;10.014;2023-03-13T00:28:29;24.02;;;7.47;;
38581;SDS011;24349;53.720;10.014;2023-03-13T00:31:05;32.22;;;8.40;;
38581;SDS011;24349;53.720;10.014;2023-03-13T00:33:39;24.20;;;7.07;;
38581;SDS011;24349;53.720;10.014;2023-03-13T00:36:13;35.92;;;9.15;;
38581;SDS011;24349;53.720;10.014;2023-03-13T00:38:47;28.92;;;8.00;;
38581;SDS011;24349;53.720;10.014;2023-03-13T00:41:14;26.52;;;7.82;;
38581;SDS011;24349;53.720;10.014;2023-03-13T00:43:41;27.92;;;7.57;;
38581;SDS011;24349;53.720;10.014;2023-03-13T00:46:08;27.75;;;7.75;;
38581;SDS011;24349;53.720;10.014;2023-03-13T00:48:34;27.95;;;8.68;;
38581;SDS011;24349;53.720;10.014;2023-03-13T00:51:00;28.38;;;7.80;;
38581;SDS011;24349;53.720;10.014;2023-03-13T00:53:27;30.02;;;7.65;;
38581;SDS011;24349;53.720;10.014;2023-03-13T00:55:54;26.80;;;7.30;;
38581;SDS011;24349;53.720;10.014;2023-03-13T00:58:24;24.17;;;7.78;;
38581;SDS011;24349;53.720;10.014;2023-03-13T01:00:52;25.48;;;8.15;;
38581;SDS011;24349;53.720;10.014;2023-03-13T01:03:18;27.88;;;8.02;;
38581;SDS011;24349;53.720;10.014;2023-03-13T01:05:44;25.40;;;8.15;;
38581;SDS011;24349;53.720;10.014;2023-03-13T01:08:18;28.27;;;7.07;;
38581;SDS011;24349;53.720;10.014;2023-03-13T01:10:44;28.95;;;7.72;;
38581;SDS011;24349;53.720;10.014;2023-03-13T01:13:09;31.70;;;8.35;;
38581;SDS011;24349;53.720;10.014;2023-03-13T01:15:35;24.40;;;7.53;;
38581;SDS011;24349;53.720;10.014;2023-03-13T01:18:01;26.20;;;6.70;;
38581;SDS011;24349;53.720;10.014;2023-03-13T01:20:27;20.58;;;7.00;;
38581;SDS011;24349;53.720;10.014;2023-03-13T01:22:54;28.17;;;7.60;;
38581;SDS011;24349;53.720;10.014;2023-03-13T01:25:20;26.10;;;7.30;;
38581;SDS011;24349;53.720;10.014;2023-03-13T01:27:45;29.17;;;8.00;;
38581;SDS011;24349;53.720;10.014;2023-03-13T01:30:11;33.45;;;8.10;;
38581;SDS011;24349;53.720;10.014;2023-03-13T01:32:37;27.17;;;8.43;;
38581;SDS011;24349;53.720;10.014;2023-03-13T01:35:03;32.40;;;8.35;;
38581;SDS011;24349;53.720;10.014;2023-03-13T01:37:29;29.65;;;7.85;;
38581;SDS011;24349;53.720;10.014;2023-03-13T01:39:54;27.90;;;7.22;;
38581;SDS011;24349;53.720;10.014;2023-03-13T01:42:20;30.88;;;7.82;;
38581;SDS011;24349;53.720;10.014;2023-03-13T01:44:49;27.40;;;7.13;;
38581;SDS011;24349;53.720;10.014;2023-03-13T01:47:20;34.35;;;8.20;;
38581;SDS011;24349;53.720;10.014;2023-03-13T01:49:46;26.05;;;8.00;;
38581;SDS011;24349;53.720;10.014;2023-03-13T01:52:13;26.25;;;7.65;;
38581;SDS011;24349;53.720;10.014;2023-03-13T01:55:01;29.58;;;7.43;;
38581;SDS011;24349;53.720;10.014;2023-03-13T01:57:34;26.25;;;7.38;;
38581;SDS011;24349;53.720;10.014;2023-03-13T02:00:07;30.02;;;8.80;;
38581;SDS011;24349;53.720;10.014;2023-03-13T02:02:36;31.08;;;7.65;;
38581;SDS011;24349;53.720;10.014;2023-03-13T02:05:05;23.05;;;7.38;;
38581;SDS011;24349;53.720;10.014;2023-03-13T02:07:40;32.80;;;8.98;;
38581;SDS011;24349;53.720;10.014;2023-03-13T02:10:09;32.15;;;7.88;;
38581;SDS011;24349;53.720;10.014;2023-03-13T02:12:37;32.95;;;8.02;;
38581;SDS011;24349;53.720;10.014;2023-03-13T02:15:06;27.10;;;7.80;;
38581;SDS011;24349;53.720;10.014;2023-03-13T02:17:37;31.70;;;7.90;;
38581;SDS011;24349;53.720;10.014;2023-03-13T02:20:04;35.60;;;8.65;;
38581;SDS011;24349;53.720;10.014;2023-03-13T02:25:50;32.15;;;8.05;;
38581;SDS011;24349;53.720;10.014;2023-03-13T02:28:24;25.55;;;7.13;;
38581;SDS011;24349;53.720;10.014;2023-03-13T02:30:57;33.75;;;8.43;;
38581;SDS011;24349;53.720;10.014;2023-03-13T02:33:27;25.85;;;6.65;;
38581;SDS011;24349;53.720;10.014;2023-03-13T02:35:55;27.27;;;6.93;;
38581;SDS011;24349;53.720;10.014;2023-03-13T02:38:26;30.60;;;7.68;;
38581;SDS011;24349;53.720;10.014;2023-03-13T02:40:54;23.90;;;7.00;;
38581;SDS011;24349;53.720;10.014;2023-03-13T02:43:31;21.73;;;6.88;;
38581;SDS011;24349;53.720;10.014;2023-03-13T02:48:37;25.17;;;6.95;;
38581;SDS011;24349;53.720;10.014;2023-03-13T02:51:05;27.02;;;6.85;;
38581;SDS011;24349;53.720;10.014;2023-03-13T02:53:38;28.20;;;6.65;;
38581;SDS011;24349;53.720;10.014;2023-03-13T02:56:04;28.77;;;6.88;;
38581;SDS011;24349;53.720;10.014;2023-03-13T02:58:34;26.67;;;7.35;;
38581;SDS011;24349;53.720;10.014;2023-03-13T03:01:03;36.60;;;8.73;;
38581;SDS011;24349;53.720;10.014;2023-03-13T03:03:31;29.15;;;7.07;;
38581;SDS011;24349;53.720;10.014;2023-03-13T03:06:01;32.92;;;7.35;;
38581;SDS011;24349;53.720;10.014;2023-03-13T03:08:27;26.95;;;6.85;;
38581;SDS011;24349;53.720;10.014;2023-03-13T03:10:53;28.17;;;8.32;;
38581;SDS011;24349;53.720;10.014;2023-03-13T03:13:19;31.05;;;7.85;;
38581;SDS011;24349;53.720;10.014;2023-03-13T03:15:44;27.25;;;6.82;;
38581;SDS011;24349;53.720;10.014;2023-03-13T03:18:10;29.92;;;7.00;;
38581;SDS011;24349;53.720;10.014;2023-03-13T03:20:36;29.48;;;6.65;;
38581;SDS011;24349;53.720;10.014;2023-03-13T03:23:01;29.52;;;6.53;;
38581;SDS011;24349;53.720;10.014;2023-03-13T03:25:27;24.25;;;6.93;;
38581;SDS011;24349;53.720;10.014;2023-03-13T03:27:53;25.70;;;6.60;;
38581;SDS011;24349;53.720;10.014;2023-03-13T03:30:18;32.40;;;7.82;;
38581;SDS011;24349;53.720;10.014;2023-03-13T03:32:44;25.90;;;6.60;;
38581;SDS011;24349;53.720;10.014;2023-03-13T03:35:10;24.30;;;6.82;;
38581;SDS011;24349;53.720;10.014;2023-03-13T03:37:35;25.67;;;7.13;;
38581;SDS011;24349;53.720;10.014;2023-03-13T03:40:01;24.80;;;6.45;;
38581;SDS011;24349;53.720;10.014;2023-03-13T03:42:29;31.88;;;6.75;;
38581;SDS011;24349;53.720;10.014;2023-03-13T03:44:55;22.13;;;6.18;;
38581;SDS011;24349;53.720;10.014;2023-03-13T03:47:20;29.20;;;6.35;;
38581;SDS011;24349;53.720;10.014;2023-03-13T03:49:46;29.50;;;6.40;;
38581;SDS011;24349;53.720;10.014;2023-03-13T03:52:12;32.63;;;7.22;;
38581;SDS011;24349;53.720;10.014;2023-03-13T03:54:37;27.85;;;6.43;;
38581;SDS011;24349;53.720;10.014;2023-03-13T03:57:03;32.72;;;6.57;;
38581;SDS011;24349;53.720;10.014;2023-03-13T03:59:29;28.98;;;6.30;;
38581;SDS011;24349;53.720;10.014;2023-03-13T04:01:54;25.65;;;6.20;;
38581;SDS011;24349;53.720;10.014;2023-03-13T04:04:20;23.27;;;7.20;;
38581;SDS011;24349;53.720;10.014;2023-03-13T04:06:45;25.08;;;5.68;;
38581;SDS011;24349;53.720;10.014;2023-03-13T04:09:11;23.85;;;6.25;;
38581;SDS011;24349;53.720;10.014;2023-03-13T04:11:37;24.20;;;5.18;;
38581;SDS011;24349;53.720;10.014;2023-03-13T04:14:02;19.85;;;5.70;;
38581;SDS011;24349;53.720;10.014;2023-03-13T04:16:28;23.98;;;6.57;;
38581;SDS011;24349;53.720;10.014;2023-03-13T04:18:53;24.35;;;6.22;;
38581;SDS011;24349;53.720;10.014;2023-03-13T04:21:19;26.58;;;5.97;;
38581;SDS011;24349;53.720;10.014;2023-03-13T04:23:45;24.65;;;6.43;;
38581;SDS011;24349;53.720;10.014;2023-03-13T04:26:10;24.80;;;6.32;;
38581;SDS011;24349;53.720;10.014;2023-03-13T04:28:36;24.95;;;5.53;;
38581;SDS011;24349;53.720;10.014;2023-03-13T04:31:01;29.42;;;7.22;;
38581;SDS011;24349;53.720;10.014;2023-03-13T04:33:27;24.23;;;6.57;;
38581;SDS011;24349;53.720;10.014;2023-03-13T04:35:53;30.15;;;7.38;;
38581;SDS011;24349;53.720;10.014;2023-03-13T04:38:19;33.53;;;6.53;;
38581;SDS011;24349;53.720;10.014;2023-03-13T04:40:45;23.77;;;6.78;;
38581;SDS011;24349;53.720;10.014;2023-03-13T04:43:11;25.63;;;5.85;;
38581;SDS011;24349;53.720;10.014;2023-03-13T04:45:37;30.50;;;7.03;;
38581;SDS011;24349;53.720;10.014;2023-03-13T04:48:03;21.05;;;5.75;;
38581;SDS011;24349;53.720;10.014;2023-03-13T04:50:28;24.92;;;6.65;;
38581;SDS011;24349;53.720;10.014;2023-03-13T04:52:54;24.42;;;5.63;;
38581;SDS011;24349;53.720;10.014;2023-03-13T04:55:19;27.40;;;6.25;;
38581;SDS011;24349;53.720;10.014;2023-03-13T04:57:45;21.10;;;5.38;;
38581;SDS011;24349;53.720;10.014;2023-03-13T05:00:11;23.10;;;6.43;;
38581;SDS011;24349;53.720;10.014;2023-03-13T05:02:36;18.73;;;5.93;;
38581;SDS011;24349;53.720;10.014;2023-03-13T05:05:02;33.67;;;7.28;;
38581;SDS011;24349;53.720;10.014;2023-03-13T05:07:28;21.90;;;6.78;;
38581;SDS011;24349;53.720;10.014;2023-03-13T05:09:53;24.33;;;6.53;;
38581;SDS011;24349;53.720;10.014;2023-03-13T05:12:19;24.10;;;6.50;;
38581;SDS011;24349;53.720;10.014;2023-03-13T05:14:44;25.58;;;7.13;;
38581;SDS011;24349;53.720;10.014;2023-03-13T05:17:10;28.42;;;7.57;;
38581;SDS011;24349;53.720;10.014;2023-03-13T05:19:36;21.40;;;6.22;;
38581;SDS011;24349;53.720;10.014;2023-03-13T05:22:02;26.00;;;7.03;;
38581;SDS011;24349;53.720;10.014;2023-03-13T05:24:28;21.13;;;5.75;;
38581;SDS011;24349;53.720;10.014;2023-03-13T05:26:53;19.23;;;5.85;;
38581;SDS011;24349;53.720;10.014;2023-03-13T05:29:19;25.17;;;7.18;;
38581;SDS011;24349;53.720;10.014;2023-03-13T05:31:45;21.20;;;6.00;;
38581;SDS011;24349;53.720;10.014;2023-03-13T05:34:10;16.65;;;5.10;;
38581;SDS011;24349;53.720;10.014;2023-03-13T05:36:36;21.27;;;5.53;;
38581;SDS011;24349;53.720;10.014;2023-03-13T05:39:02;24.70;;;6.80;;
38581;SDS011;24349;53.720;10.014;2023-03-13T05:41:27;18.65;;;5.07;;
38581;SDS011;24349;53.720;10.014;2023-03-13T05:43:53;18.17;;;4.93;;
38581;SDS011;24349;53.720;10.014;2023-03-13T05:46:19;20.00;;;6.03;;
38581;SDS011;24349;53.720;10.014;2023-03-13T05:48:44;21.02;;;5.82;;
38581;SDS011;24349;53.720;10.014;2023-03-13T05:51:10;18.60;;;5.90;;
38581;SDS011;24349;53.720;10.014;2023-03-13T05:53:36;20.25;;;5.32;;
38581;SDS011;24349;53.720;10.014;2023-03-13T05:56:02;14.57;;;4.70;;
38581;SDS011;24349;53.720;10.014;2023-03-13T05:58:28;13.93;;;4.78;;
38581;SDS011;24349;53.720;10.014;2023-03-13T06:00:53;14.60;;;5.25;;
38581;SDS011;24349;53.720;10.014;2023-03-13T06:03:19;17.52;;;4.80;;
38581;SDS011;24349;53.720;10.014;2023-03-13T06:05:44;14.70;;;4.63;;
38581;SDS011;24349;53.720;10.014;2023-03-13T06:08:10;12.38;;;4.03;;
38581;SDS011;24349;53.720;10.014;2023-03-13T06:10:35;13.18;;;4.63;;
38581;SDS011;24349;53.720;10.014;2023-03-13T06:13:01;12.07;;;4.07;;
38581;SDS011;24349;53.720;10.014;2023-03-13T06:15:27;9.18;;;4.43;;
38581;SDS011;24349;53.720;10.014;2023-03-13T06:17:52;12.85;;;3.92;;
38581;SDS011;24349;53.720;10.014;2023-03-13T06:20:18;9.80;;;3.03;;
38581;SDS011;24349;53.720;10.014;2023-03-13T06:22:43;11.38;;;4.35;;
38581;SDS011;24349;53.720;10.014;2023-03-13T06:25:09;9.95;;;3.50;;
38581;SDS011;24349;53.720;10.014;2023-03-13T06:27:35;10.23;;;3.22;;
38581;SDS011;24349;53.720;10.014;2023-03-13T06:30:01;11.23;;;3.22;;
38581;SDS011;24349;53.720;10.014;2023-03-13T06:32:27;9.63;;;3.22;;
38581;SDS011;24349;53.720;10.014;2023-03-13T06:34:52;9.13;;;3.13;;
38581;SDS011;24349;53.720;10.014;2023-03-13T06:37:18;9.07;;;2.53;;
38581;SDS011;24349;53.720;10.014;2023-03-13T06:39:43;7.80;;;2.45;;
38581;SDS011;24349;53.720;10.014;2023-03-13T06:42:09;6.75;;;2.20;;
38581;SDS011;24349;53.720;10.014;2023-03-13T06:44:35;6.10;;;2.28;;
38581;SDS011;24349;53.720;10.014;2023-03-13T06:47:00;6.43;;;1.95;;
38581;SDS011;24349;53.720;10.014;2023-03-13T06:49:26;6.50;;;1.90;;
38581;SDS011;24349;53.720;10.014;2023-03-13T06:51:52;5.78;;;2.22;;
38581;SDS011;24349;53.720;10.014;2023-03-13T06:54:17;4.82;;;1.80;;
38581;SDS011;24349;53.720;10.014;2023-03-13T06:56:43;5.32;;;1.67;;
38581;SDS011;24349;53.720;10.014;2023-03-13T06:59:08;5.63;;;1.90;;
38581;SDS011;24349;53.720;10.014;2023-03-13T07:01:34;7.07;;;2.00;;
38581;SDS011;24349;53.720;10.014;2023-03-13T07:04:00;5.45;;;1.88;;
38581;SDS011;24349;53.720;10.014;2023-03-13T07:06:25;6.88;;;2.60;;
38581;SDS011;24349;53.720;10.014;2023-03-13T07:08:51;5.93;;;2.03;;
38581;SDS011;24349;53.720;10.014;2023-03-13T07:11:17;6.28;;;2.10;;
38581;SDS011;24349;53.720;10.014;2023-03-13T07:13:42;5.75;;;2.17;;
38581;SDS011;24349;53.720;10.014;2023-03-13T07:16:09;5.70;;;2.10;;
38581;SDS011;24349;53.720;10.014;2023-03-13T07:18:36;4.25;;;1.73;;
38581;SDS011;24349;53.720;10.014;2023-03-13T07:21:03;5.80;;;2.40;;
38581;SDS011;24349;53.720;10.014;2023-03-13T07:23:30;6.28;;;2.28;;
38581;SDS011;24349;53.720;10.014;2023-03-13T07:25:57;5.40;;;2.13;;
38581;SDS011;24349;53.720;10.014;2023-03-13T07:28:25;6.55;;;2.10;;
38581;SDS011;24349;53.720;10.014;2023-03-13T07:30:51;6.10;;;1.90;;
38581;SDS011;24349;53.720;10.014;2023-03-13T07:33:17;7.93;;;2.08;;
38581;SDS011;24349;53.720;10.014;2023-03-13T07:35:50;7.18;;;2.70;;
38581;SDS011;24349;53.720;10.014;2023-03-13T07:38:17;6.32;;;2.45;;
38581;SDS011;24349;53.720;10.014;2023-03-13T07:41:01;5.15;;;2.55;;
38581;SDS011;24349;53.720;10.014;2023-03-13T07:43:27;5.75;;;2.22;;
38581;SDS011;24349;53.720;10.014;2023-03-13T07:50:54;4.75;;;2.17;;
38581;SDS011;24349;53.720;10.014;2023-03-13T07:53:20;4.22;;;1.83;;
38581;SDS011;24349;53.720;10.014;2023-03-13T07:55:57;7.03;;;2.83;;
38581;SDS011;24349;53.720;10.014;2023-03-13T07:58:25;5.63;;;2.78;;
38581;SDS011;24349;53.720;10.014;2023-03-13T08:00:52;5.43;;;2.70;;
38581;SDS011;24349;53.720;10.014;2023-03-13T08:03:18;6.30;;;3.00;;
38581;SDS011;24349;53.720;10.014;2023-03-13T08:05:44;7.38;;;3.20;;
38581;SDS011;24349;53.720;10.014;2023-03-13T08:08:10;5.57;;;3.13;;
38581;SDS011;24349;53.720;10.014;2023-03-13T08:10:36;5.85;;;2.95;;
38581;SDS011;24349;53.720;10.014;2023-03-13T08:13:01;7.00;;;3.28;;
38581;SDS011;24349;53.720;10.014;2023-03-13T08:15:27;6.07;;;3.38;;
38581;SDS011;24349;53.720;10.014;2023-03-13T08:17:56;6.45;;;3.47;;
38581;SDS011;24349;53.720;10.014;2023-03-13T08:20:22;6.53;;;3.78;;
38581;SDS011;24349;53.720;10.014;2023-03-13T08:22:47;5.85;;;3.65;;
38581;SDS011;24349;53.720;10.014;2023-03-13T08:25:16;6.50;;;3.70;;
38581;SDS011;24349;53.720;10.014;2023-03-13T08:27:42;6.22;;;3.28;;
38581;SDS011;24349;53.720;10.014;2023-03-13T08:30:08;5.82;;;3.60;;
38581;SDS011;24349;53.720;10.014;2023-03-13T08:32:34;10.27;;;3.45;;
38581;SDS011;24349;53.720;10.014;2023-03-13T08:35:01;5.97;;;3.60;;
38581;SDS011;24349;53.720;10.014;2023-03-13T08:37:27;6.35;;;3.97;;
38581;SDS011;24349;53.720;10.014;2023-03-13T08:39:53;8.00;;;2.95;;
38581;SDS011;24349;53.720;10.014;2023-03-13T08:42:20;6.88;;;4.15;;
38581;SDS011;24349;53.720;10.014;2023-03-13T08:44:46;6.22;;;3.97;;
38581;SDS011;24349;53.720;10.014;2023-03-13T08:47:12;5.00;;;2.75;;
38581;SDS011;24349;53.720;10.014;2023-03-13T08:49:38;6.95;;;4.05;;
38581;SDS011;24349;53.720;10.014;2023-03-13T08:52:04;6.10;;;3.70;;
38581;SDS011;24349;53.720;10.014;2023-03-13T08:54:30;5.80;;;3.88;;
38581;SDS011;24349;53.720;10.014;2023-03-13T08:56:56;6.25;;;4.25;;
38581;SDS011;24349;53.720;10.014;2023-03-13T08:59:21;5.85;;;4.05;;
38581;SDS011;24349;53.720;10.014;2023-03-13T09:01:47;7.18;;;4.93;;
38581;SDS011;24349;53.720;10.014;2023-03-13T09:04:13;7.15;;;4.95;;
38581;SDS011;24349;53.720;10.014;2023-03-13T09:06:38;8.48;;;6.25;;
38581;SDS011;24349;53.720;10.014;2023-03-13T09:09:04;9.32;;;5.70;;
38581;SDS011;24349;53.720;10.014;2023-03-13T09:11:31;8.52;;;6.03;;
38581;SDS011;24349;53.720;10.014;2023-03-13T09:13:57;9.10;;;6.05;;
38581;SDS011;24349;53.720;10.014;2023-03-13T09:16:24;8.68;;;5.93;;
38581;SDS011;24349;53.720;10.014;2023-03-13T09:18:51;8.43;;;5.95;;
38581;SDS011;24349;53.720;10.014;2023-03-13T09:21:21;9.25;;;5.97;;
38581;SDS011;24349;53.720;10.014;2023-03-13T09:23:49;8.52;;;6.40;;
38581;SDS011;24349;53.720;10.014;2023-03-13T09:26:15;8.20;;;5.55;;
38581;SDS011;24349;53.720;10.014;2023-03-13T09:28:42;8.15;;;4.85;;
38581;SDS011;24349;53.720;10.014;2023-03-13T09:31:12;7.45;;;5.97;;
38581;SDS011;24349;53.720;10.014;2023-03-13T09:33:42;8.55;;;5.18;;
38581;SDS011;24349;53.720;10.014;2023-03-13T09:36:09;8.32;;;6.45;;
38581;SDS011;24349;53.720;10.014;2023-03-13T09:38:35;10.32;;;7.20;;
38581;SDS011;24349;53.720;10.014;2023-03-13T09:41:46;8.93;;;6.05;;
38581;SDS011;24349;53.720;10.014;2023-03-13T09:44:16;9.98;;;6.70;;
38581;SDS011;24349;53.720;10.014;2023-03-13T09:49:28;10.25;;;6.85;;
38581;SDS011;24349;53.720;10.014;2023-03-13T09:52:25;7.03;;;4.80;;
38581;SDS011;24349;53.720;10.014;2023-03-13T09:55:02;7.45;;;4.85;;
38581;SDS011;24349;53.720;10.014;2023-03-13T09:57:37;8.57;;;5.45;;
38581;SDS011;24349;53.720;10.014;2023-03-13T10:02:45;7.97;;;5.15;;
38581;SDS011;24349;53.720;10.014;2023-03-13T10:05:20;11.35;;;6.65;;
38581;SDS011;24349;53.720;10.014;2023-03-13T10:07:53;10.05;;;6.35;;
38581;SDS011;24349;53.720;10.014;2023-03-13T10:10:39;9.55;;;7.05;;
38581;SDS011;24349;53.720;10.014;2023-03-13T10:13:13;11.43;;;7.13;;
38581;SDS011;24349;53.720;10.014;2023-03-13T10:18:21;9.68;;;6.15;;
38581;SDS011;24349;53.720;10.014;2023-03-13T10:20:48;11.07;;;6.45;;
38581;SDS011;24349;53.720;10.014;2023-03-13T10:23:21;7.65;;;5.13;;
38581;SDS011;24349;53.720;10.014;2023-03-13T10:26:03;10.35;;;6.53;;
38581;SDS011;24349;53.720;10.014;2023-03-13T10:28:29;9.30;;;5.85;;
38581;SDS011;24349;53.720;10.014;2023-03-13T10:31:03;7.15;;;4.68;;
38581;SDS011;24349;53.720;10.014;2023-03-13T10:33:38;8.63;;;5.63;;
38581;SDS011;24349;53.720;10.014;2023-03-13T10:36:06;9.52;;;5.90;;
38581;SDS011;24349;53.720;10.014;2023-03-13T10:38:47;7.75;;;4.93;;
38581;SDS011;24349;53.720;10.014;2023-03-13T10:41:19;7.63;;;4.50;;
38581;SDS011;24349;53.720;10.014;2023-03-13T10:43:51;9.80;;;5.60;;
38581;SDS011;24349;53.720;10.014;2023-03-13T10:46:50;8.73;;;4.97;;
38581;SDS011;24349;53.720;10.014;2023-03-13T10:51:45;6.57;;;3.58;;
38581;SDS011;24349;53.720;10.014;2023-03-13T10:54:35;7.60;;;4.05;;
38581;SDS011;24349;53.720;10.014;2023-03-13T10:57:49;6.47;;;3.90;;
38581;SDS011;24349;53.720;10.014;2023-03-13T10:59:54;7.95;;;3.58;;
38581;SDS011;24349;53.720;10.014;2023-03-13T11:02:34;6.57;;;3.60;;
38581;SDS011;24349;53.720;10.014;2023-03-13T11:05:03;6.63;;;3.30;;
38581;SDS011;24349;53.720;10.014;2023-03-13T11:07:48;5.95;;;3.40;;
38581;SDS011;24349;53.720;10.014;2023-03-13T11:12:56;5.60;;;2.35;;
38581;SDS011;24349;53.720;10.014;2023-03-13T11:21:04;5.75;;;2.97;;
38581;SDS011;24349;53.720;10.014;2023-03-13T11:23:34;6.40;;;2.67;;
38581;SDS011;24349;53.720;10.014;2023-03-13T11:26:12;6.57;;;2.60;;
38581;SDS011;24349;53.720;10.014;2023-03-13T11:28:56;5.90;;;2.20;;
38581;SDS011;24349;53.720;10.014;2023-03-13T11:34:05;5.65;;;2.03;;
38581;SDS011;24349;53.720;10.014;2023-03-13T11:37:02;6.25;;;2.50;;
38581;SDS011;24349;53.720;10.014;2023-03-13T11:45:05;5.50;;;2.30;;
38581;SDS011;24349;53.720;10.014;2023-03-13T11:48:14;4.72;;;2.28;;
38581;SDS011;24349;53.720;10.014;2023-03-13T11:50:39;3.58;;;1.50;;
38581;SDS011;24349;53.720;10.014;2023-03-13T11:58:58;5.45;;;1.77;;
38581;SDS011;24349;53.720;10.014;2023-03-13T12:01:39;6.07;;;1.85;;
38581;SDS011;24349;53.720;10.014;2023-03-13T12:04:13;5.22;;;1.85;;
38581;SDS011;24349;53.720;10.014;2023-03-13T12:06:55;7.03;;;1.80;;
38581;SDS011;24349;53.720;10.014;2023-03-13T12:15:15;6.05;;;2.10;;
38581;SDS011;24349;53.720;10.014;2023-03-13T12:28:36;6.18;;;2.38;;
38581;SDS011;24349;53.720;10.014;2023-03-13T12:31:16;5.57;;;1.75;;
38581;SDS011;24349;53.720;10.014;2023-03-13T12:39:45;4.47;;;1.70;;
38581;SDS011;24349;53.720;10.014;2023-03-13T12:45:11;4.45;;;1.80;;
38581;SDS011;24349;53.720;10.014;2023-03-13T12:50:54;5.22;;;1.80;;
38581;SDS011;24349;53.720;10.014;2023-03-13T12:56:43;5.25;;;1.83;;
38581;SDS011;24349;53.720;10.014;2023-03-13T12:59:33;6.15;;;1.90;;
38581;SDS011;24349;53.720;10.014;2023-03-13T13:02:47;7.55;;;1.80;;
38581;SDS011;24349;53.720;10.014;2023-03-13T13:04:55;4.43;;;1.63;;
38581;SDS011;24349;53.720;10.014;2023-03-13T13:07:23;5.68;;;1.83;;
38581;SDS011;24349;53.720;10.014;2023-03-13T13:12:35;7.25;;;2.13;;
38581;SDS011;24349;53.720;10.014;2023-03-13T13:15:24;6.28;;;2.22;;
38581;SDS011;24349;53.720;10.014;2023-03-13T13:17:54;6.70;;;1.90;;
38581;SDS011;24349;53.720;10.014;2023-03-13T13:36:58;6.35;;;2.00;;
38581;SDS011;24349;53.720;10.014;2023-03-13T13:39:40;7.47;;;1.90;;
38581;SDS011;24349;53.720;10.014;2023-03-13T13:47:44;5.63;;;1.70;;
38581;SDS011;24349;53.720;10.014;2023-03-13T13:50:21;5.88;;;1.83;;
38581;SDS011;24349;53.720;10.014;2023-03-13T13:52:49;6.53;;;2.03;;
38581;SDS011;24349;53.720;10.014;2023-03-13T13:55:32;7.90;;;2.95;;
38581;SDS011;24349;53.720;10.014;2023-03-13T14:00:49;6.00;;;2.03;;
38581;SDS011;24349;53.720;10.014;2023-03-13T14:03:23;6.28;;;1.90;;
38581;SDS011;24349;53.720;10.014;2023-03-13T14:05:56;15.45;;;2.25;;
38581;SDS011;24349;53.720;10.014;2023-03-13T14:08:29;5.25;;;1.90;;
38581;SDS011;24349;53.720;10.014;2023-03-13T14:13:38;5.38;;;1.90;;
38581;SDS011;24349;53.720;10.014;2023-03-13T14:18:51;6.45;;;1.95;;
38581;SDS011;24349;53.720;10.014;2023-03-13T14:21:21;4.90;;;1.70;;
38581;SDS011;24349;53.720;10.014;2023-03-13T14:23:48;5.95;;;2.10;;
38581;SDS011;24349;53.720;10.014;2023-03-13T14:26:15;4.20;;;1.90;;
38581;SDS011;24349;53.720;10.014;2023-03-13T14:28:53;5.60;;;2.22;;
38581;SDS011;24349;53.720;10.014;2023-03-13T14:31:38;4.95;;;2.10;;
38581;SDS011;24349;53.720;10.014;2023-03-13T14:34:11;5.25;;;1.70;;
38581;SDS011;24349;53.720;10.014;2023-03-13T14:36:47;6.78;;;1.75;;
38581;SDS011;24349;53.720;10.014;2023-03-13T14:39:35;4.72;;;1.70;;
38581;SDS011;24349;53.720;10.014;2023-03-13T14:42:02;4.22;;;1.67;;
38581;SDS011;24349;53.720;10.014;2023-03-13T14:44:38;5.28;;;1.88;;
38581;SDS011;24349;53.720;10.014;2023-03-13T14:47:11;5.90;;;1.65;;
38581;SDS011;24349;53.720;10.014;2023-03-13T14:49:38;6.15;;;1.80;;
38581;SDS011;24349;53.720;10.014;2023-03-13T14:52:05;5.25;;;1.92;;
38581;SDS011;24349;53.720;10.014;2023-03-13T14:54:54;5.38;;;1.80;;
38581;SDS011;24349;53.720;10.014;2023-03-13T14:57:32;5.93;;;1.70;;
38581;SDS011;24349;53.720;10.014;2023-03-13T15:00:25;7.05;;;2.38;;
38581;SDS011;24349;53.720;10.014;2023-03-13T15:05:41;4.38;;;1.35;;
38581;SDS011;24349;53.720;10.014;2023-03-13T15:08:15;5.50;;;1.75;;
38581;SDS011;24349;53.720;10.014;2023-03-13T15:10:42;5.70;;;1.90;;
38581;SDS011;24349;53.720;10.014;2023-03-13T15:13:13;4.70;;;1.67;;
38581;SDS011;24349;53.720;10.014;2023-03-13T15:15:47;5.75;;;1.58;;
38581;SDS011;24349;53.720;10.014;2023-03-13T15:18:16;4.45;;;1.60;;
38581;SDS011;24349;53.720;10.014;2023-03-13T15:20:51;7.28;;;1.88;;
38581;SDS011;24349;53.720;10.014;2023-03-13T15:23:19;6.07;;;2.00;;
38581;SDS011;24349;53.720;10.014;2023-03-13T15:25:45;4.93;;;1.75;;
38581;SDS011;24349;53.720;10.014;2023-03-13T15:28:15;4.50;;;1.65;;
38581;SDS011;24349;53.720;10.014;2023-03-13T15:30:47;5.55;;;1.70;;
38581;SDS011;24349;53.720;10.014;2023-03-13T15:33:15;3.88;;;1.58;;
38581;SDS011;24349;53.720;10.014;2023-03-13T15:35:46;6.25;;;2.25;;
38581;SDS011;24349;53.720;10.014;2023-03-13T15:38:13;5.47;;;1.67;;
38581;SDS011;24349;53.720;10.014;2023-03-13T15:40:44;4.72;;;1.80;;
38581;SDS011;24349;53.720;10.014;2023-03-13T15:43:10;5.65;;;1.52;;
38581;SDS011;24349;53.720;10.014;2023-03-13T15:45:37;5.88;;;1.85;;
38581;SDS011;24349;53.720;10.014;2023-03-13T15:51:00;5.28;;;1.50;;
38581;SDS011;24349;53.720;10.014;2023-03-13T15:53:29;5.40;;;1.67;;
38581;SDS011;24349;53.720;10.014;2023-03-13T15:55:57;5.25;;;1.75;;
38581;SDS011;24349;53.720;10.014;2023-03-13T15:58:25;4.60;;;1.60;;
38581;SDS011;24349;53.720;10.014;2023-03-13T16:00:52;5.03;;;1.65;;
38581;SDS011;24349;53.720;10.014;2023-03-13T16:03:21;5.43;;;1.85;;
38581;SDS011;24349;53.720;10.014;2023-03-13T16:05:51;5.35;;;1.83;;
38581;SDS011;24349;53.720;10.014;2023-03-13T16:08:22;4.32;;;1.67;;
38581;SDS011;24349;53.720;10.014;2023-03-13T16:10:49;4.17;;;1.67;;
38581;SDS011;24349;53.720;10.014;2023-03-13T16:13:16;4.32;;;1.60;;
38581;SDS011;24349;53.720;10.014;2023-03-13T16:15:42;6.03;;;1.95;;
38581;SDS011;24349;53.720;10.014;2023-03-13T16:18:08;5.28;;;1.73;;
38581;SDS011;24349;53.720;10.014;2023-03-13T16:20:39;5.40;;;1.70;;
38581;SDS011;24349;53.720;10.014;2023-03-13T16:23:05;3.22;;;1.50;;
38581;SDS011;24349;53.720;10.014;2023-03-13T16:25:31;6.20;;;1.70;;
38581;SDS011;24349;53.720;10.014;2023-03-13T16:27:57;5.57;;;1.90;;
38581;SDS011;24349;53.720;10.014;2023-03-13T16:30:26;3.92;;;1.48;;
38581;SDS011;24349;53.720;10.014;2023-03-13T16:32:56;3.40;;;1.48;;
38581;SDS011;24349;53.720;10.014;2023-03-13T16:35:22;6.15;;;1.67;;